AirNav   Bose A20 Aviation Headset
 
 361 users online  

OR50 Lehman Field Airport
Corbett, Oregon, USA

GOING TO CORBETT?


FAA INFORMATION EFFECTIVE 11 OCTOBER 2018

Location

FAA Identifier: OR50
Lat/Long: 45-29-08.4330N / 122-14-02.3220W
45-29.140550N / 122-14.038700W
45.4856758 / -122.2339783
(estimated)
Elevation: 1003 ft. / 305.7 m (surveyed)
Variation: 19E (1985)
From city: 3 miles SE of CORBETT, OR
Time zone: UTC -7 (UTC -8 during Standard Time)
Zip code: 97019

Airport Operations

Airport use: Private use. Permission required prior to landing
Activation date: 11/1973
Control tower: no
ARTCC: SEATTLE CENTER
FSS: MC MINNVILLE FLIGHT SERVICE STATION
Attendance: UNATNDD
Wind indicator: yes
Segmented circle: no

Airport Communications

WX ASOS at TTD (8 nm NW): 135.625 (503-492-2887)
WX ASOS at PDX (16 nm W): PHONE (503) 493-7687
WX ASOS at VUO (20 nm NW): 135.125 (360-696-1280)

Nearby radio navigation aids

VOR radial/distance  VOR name  Freq  Var
BTGr115/21.7BATTLE GROUND VORTAC116.6021E
UBGr055/32.3NEWBERG VOR/DME117.4021E

 
NDB name  Hdg/Dist  Freq  Var  ID
BANKS088/35.235616EPND .--. -. -..

Airport Services

Airframe service: NONE
Powerplant service: NONE

Runway Information

Runway E/W

Dimensions: 2300 x 25 ft. / 701 x 8 m
Surface: turf
RUNWAY E  RUNWAY W
Traffic pattern: leftleft
Obstructions: none50 ft. trees, 100 ft. from runway

Airport Ownership and Management from official FAA records

Ownership: Privately-owned
Owner: J THOMAS LEHMAN
41313 SE TROUTCREEK ROAD
CORBETT, OR 97019
Phone 503-695-2836
Manager: J. THOMAS LEHMAN
41313 SE TROUTCREEK RD
CORBETT, OR 97019
Phone (503) 740-2884

Airport Operational Statistics

Aircraft based on the field: 1
Single engine airplanes: 1
    
Aircraft operations: 150/year
100% local general aviation

Additional Remarks

A30A-E CAUTION: LAND RWY 7; TKOF RWY 25.
FOR CD CTC PORTLAND APCH AT 503-493-7545.

Instrument Procedures

There are no published instrument procedures at OR50.

Some nearby airports with instrument procedures:

KTTD - Portland-Troutdale Airport (8 nm NW)
KPDX - Portland International Airport (16 nm W)
KVUO - Pearson Field Airport (20 nm NW)
KUAO - Aurora State Airport (27 nm SW)
KHIO - Portland-Hillsboro Airport (30 nm W)
 
Loc | Ops | Rwys | IFR | FBO | Links
Com | Nav | Svcs | Stats | Notes


 
Area around OR50 (Lehman Field Airport)
 
Road maps at: MapQuest Bing Google
 
Aerial photo
WARNING: Photo may not be current or correct
Aerial photo of OR50 (Lehman Field Airport)
Do you have a better or more recent aerial photo of Lehman Field Airport that you would like to share? If so, please send us your photo.

 
Sectional chart

 
Airport distance calculator
Flying to Lehman Field Airport? Find the distance to fly.

From to OR50

Sunrise and sunset
Times for 21-Oct-2018
 Local
(UTC-7)
 Zulu
(UTC)
Morning civil twilight07:0414:04
Sunrise07:3414:34
Sunset18:1301:13
Evening civil twilight18:4301:43

Current date and time
Zulu (UTC)  22-Oct-2018 06:59:59
Local (UTC-7)  21-Oct-2018 23:59:59
 
METAR
KTTD 
9nm NW 
220653Z AUTO 00000KT 8SM CLR 07/06 A2998 RMK AO2 SLP150 T00720061
KPDX 
16nm W 
220653Z 26004KT 8SM CLR 10/08 A2998 RMK AO2 SLP153 T01000083
KVUO 
19nm NW 
220653Z AUTO 00000KT 7SM CLR 07/06 A2998 RMK AO2 SLP151 T00720061
TAF
KTTD 
9nm NW 
220529Z 2206/2306 VRB03KT P6SM SKC FM220900 00000KT 2SM BR FEW002 FM221100 00000KT 1/4SM FG VV002 FM221700 00000KT P6SM SKC
KPDX 
16nm W 
220529Z 2206/2306 00000KT P6SM SKC FM221200 00000KT 1/2SM FG BKN002 FM221800 VRB03KT 6SM BR BKN003 FM221900 32004KT P6SM SKC
NOTAMs
Click for the latest NOTAMs
NOTAMs are issued by the DoD/FAA and will open in a separate window not controlled by AirNav.

 

 
 

Would you like to see your business listed on this page?

 If your business provides an interesting product or service to pilots, flight crews, aircraft, or users of the Lehman Field Airport, you should consider listing it here.  To start the listing process, click on the button below
 
Add a business
 

Other Pages about Lehman Field Airport

Update a link
 
Copyright © AirNav, LLC. All rights reserved. Privacy Policy  Contact